sensor_id;sensor_type;location;lat;lon;timestamp;pressure;altitude;pressure_sealevel;temperature;humidity
43480;BME280;29067;35.492;-97.520;2023-05-12T00:01:37;96381.52;;;23.42;63.20
43480;BME280;29067;35.492;-97.520;2023-05-12T00:04:05;96372.61;;;23.55;63.70
43480;BME280;29067;35.492;-97.520;2023-05-12T00:06:33;96388.85;;;23.37;63.84
43480;BME280;29067;35.492;-97.520;2023-05-12T00:09:01;96414.11;;;22.19;69.22
43480;BME280;29067;35.492;-97.520;2023-05-12T00:11:30;96420.89;;;22.28;71.70
43480;BME280;29067;35.492;-97.520;2023-05-12T00:13:58;96426.77;;;23.19;72.68
43480;BME280;29067;35.492;-97.520;2023-05-12T00:16:26;96441.48;;;22.38;76.11
43480;BME280;29067;35.492;-97.520;2023-05-12T00:18:55;96446.60;;;23.56;76.16
43480;BME280;29067;35.492;-97.520;2023-05-12T00:21:23;96419.42;;;23.12;73.76
43480;BME280;29067;35.492;-97.520;2023-05-12T00:23:51;96390.73;;;23.43;73.91
43480;BME280;29067;35.492;-97.520;2023-05-12T00:26:19;96383.88;;;23.87;72.77
43480;BME280;29067;35.492;-97.520;2023-05-12T00:28:47;96407.35;;;23.63;73.53
43480;BME280;29067;35.492;-97.520;2023-05-12T00:31:15;96419.53;;;22.62;79.83
43480;BME280;29067;35.492;-97.520;2023-05-12T00:33:43;96379.28;;;22.96;80.78
43480;BME280;29067;35.492;-97.520;2023-05-12T00:36:11;96356.07;;;23.23;79.35
43480;BME280;29067;35.492;-97.520;2023-05-12T00:38:39;96360.33;;;22.77;78.07
43480;BME280;29067;35.492;-97.520;2023-05-12T00:41:07;96366.27;;;23.25;77.27
43480;BME280;29067;35.492;-97.520;2023-05-12T00:43:35;96371.51;;;23.90;75.65
43480;BME280;29067;35.492;-97.520;2023-05-12T00:46:04;96403.73;;;23.19;78.67
43480;BME280;29067;35.492;-97.520;2023-05-12T00:48:32;96414.80;;;23.09;77.53
43480;BME280;29067;35.492;-97.520;2023-05-12T00:51:01;96435.97;;;23.58;78.74
43480;BME280;29067;35.492;-97.520;2023-05-12T00:53:31;96440.46;;;21.64;80.79
43480;BME280;29067;35.492;-97.520;2023-05-12T00:55:59;96431.00;;;23.04;79.30
43480;BME280;29067;35.492;-97.520;2023-05-12T00:58:27;96434.16;;;22.46;84.40
43480;BME280;29067;35.492;-97.520;2023-05-12T01:00:54;96444.54;;;22.74;84.61
43480;BME280;29067;35.492;-97.520;2023-05-12T01:03:22;96448.66;;;23.15;83.41
43480;BME280;29067;35.492;-97.520;2023-05-12T01:05:55;96429.23;;;23.27;82.28
43480;BME280;29067;35.492;-97.520;2023-05-12T01:08:25;96411.25;;;23.74;82.15
43480;BME280;29067;35.492;-97.520;2023-05-12T01:10:53;96409.43;;;23.61;78.21
43480;BME280;29067;35.492;-97.520;2023-05-12T01:13:22;96405.07;;;22.59;84.60
43480;BME280;29067;35.492;-97.520;2023-05-12T01:15:52;96431.99;;;22.15;88.31
43480;BME280;29067;35.492;-97.520;2023-05-12T01:18:21;96458.48;;;21.68;90.38
43480;BME280;29067;35.492;-97.520;2023-05-12T01:20:50;96461.97;;;21.38;91.64
43480;BME280;29067;35.492;-97.520;2023-05-12T01:23:26;96473.08;;;20.38;91.57
43480;BME280;29067;35.492;-97.520;2023-05-12T01:28:23;96407.76;;;21.35;88.35
43480;BME280;29067;35.492;-97.520;2023-05-12T01:30:51;96424.52;;;20.46;90.50
43480;BME280;29067;35.492;-97.520;2023-05-12T01:33:19;96455.55;;;20.87;89.75
43480;BME280;29067;35.492;-97.520;2023-05-12T01:35:47;96464.00;;;20.68;89.26
43480;BME280;29067;35.492;-97.520;2023-05-12T01:38:15;96461.33;;;21.51;87.34
43480;BME280;29067;35.492;-97.520;2023-05-12T01:40:44;96462.80;;;20.92;86.21
43480;BME280;29067;35.492;-97.520;2023-05-12T01:43:12;96475.91;;;20.91;87.33
43480;BME280;29067;35.492;-97.520;2023-05-12T01:45:40;96474.63;;;20.44;85.88
43480;BME280;29067;35.492;-97.520;2023-05-12T01:48:08;96467.48;;;19.62;82.32
43480;BME280;29067;35.492;-97.520;2023-05-12T01:50:36;96479.29;;;20.17;82.47
43480;BME280;29067;35.492;-97.520;2023-05-12T01:53:05;96475.06;;;20.37;83.83
43480;BME280;29067;35.492;-97.520;2023-05-12T01:55:33;96470.75;;;20.95;81.01
43480;BME280;29067;35.492;-97.520;2023-05-12T01:58:02;96462.78;;;19.77;84.78
43480;BME280;29067;35.492;-97.520;2023-05-12T02:00:30;96469.49;;;20.10;83.92
43480;BME280;29067;35.492;-97.520;2023-05-12T02:02:58;96477.16;;;20.97;81.08
43480;BME280;29067;35.492;-97.520;2023-05-12T02:05:27;96483.19;;;20.82;81.08
43480;BME280;29067;35.492;-97.520;2023-05-12T02:07:55;96481.24;;;20.02;82.55
43480;BME280;29067;35.492;-97.520;2023-05-12T02:10:23;96464.67;;;20.18;85.75
43480;BME280;29067;35.492;-97.520;2023-05-12T02:12:51;96472.07;;;20.84;83.02
43480;BME280;29067;35.492;-97.520;2023-05-12T02:15:19;96461.76;;;20.46;84.23
43480;BME280;29067;35.492;-97.520;2023-05-12T02:17:47;96461.00;;;21.56;80.15
43480;BME280;29067;35.492;-97.520;2023-05-12T02:20:16;96464.44;;;20.99;81.58
43480;BME280;29067;35.492;-97.520;2023-05-12T02:22:45;96460.94;;;21.58;81.48
43480;BME280;29067;35.492;-97.520;2023-05-12T02:25:13;96463.10;;;21.44;81.10
43480;BME280;29067;35.492;-97.520;2023-05-12T02:27:41;96461.61;;;21.26;80.48
43480;BME280;29067;35.492;-97.520;2023-05-12T02:30:10;96476.65;;;21.69;80.58
43480;BME280;29067;35.492;-97.520;2023-05-12T02:32:38;96501.18;;;20.77;84.48
43480;BME280;29067;35.492;-97.520;2023-05-12T02:35:07;96522.09;;;22.03;81.63
43480;BME280;29067;35.492;-97.520;2023-05-12T02:37:36;96528.99;;;21.71;80.66
43480;BME280;29067;35.492;-97.520;2023-05-12T02:40:04;96515.80;;;20.74;83.64
43480;BME280;29067;35.492;-97.520;2023-05-12T02:42:33;96514.93;;;21.40;82.55
43480;BME280;29067;35.492;-97.520;2023-05-12T02:45:01;96503.61;;;19.99;88.74
43480;BME280;29067;35.492;-97.520;2023-05-12T02:47:30;96485.04;;;20.48;86.73
43480;BME280;29067;35.492;-97.520;2023-05-12T02:49:59;96488.86;;;20.18;88.65
43480;BME280;29067;35.492;-97.520;2023-05-12T02:52:26;96504.17;;;21.24;85.50
43480;BME280;29067;35.492;-97.520;2023-05-12T02:54:55;96512.00;;;21.88;80.78
43480;BME280;29067;35.492;-97.520;2023-05-12T02:57:23;96518.77;;;20.93;87.99
43480;BME280;29067;35.492;-97.520;2023-05-12T02:59:52;96520.29;;;20.97;86.21
43480;BME280;29067;35.492;-97.520;2023-05-12T03:02:20;96536.56;;;19.46;92.63
43480;BME280;29067;35.492;-97.520;2023-05-12T03:04:48;96544.96;;;20.93;89.25
43480;BME280;29067;35.492;-97.520;2023-05-12T03:07:16;96540.81;;;20.66;85.69
43480;BME280;29067;35.492;-97.520;2023-05-12T03:09:44;96526.73;;;20.54;80.57
43480;BME280;29067;35.492;-97.520;2023-05-12T03:12:12;96516.52;;;20.44;79.68
43480;BME280;29067;35.492;-97.520;2023-05-12T03:14:41;96519.29;;;20.25;80.80
43480;BME280;29067;35.492;-97.520;2023-05-12T03:17:09;96536.42;;;19.45;81.05
43480;BME280;29067;35.492;-97.520;2023-05-12T03:19:37;96520.80;;;19.43;79.67
43480;BME280;29067;35.492;-97.520;2023-05-12T03:22:06;96506.75;;;20.02;74.15
43480;BME280;29067;35.492;-97.520;2023-05-12T03:24:35;96505.39;;;20.20;74.09
43480;BME280;29067;35.492;-97.520;2023-05-12T03:27:04;96518.51;;;19.28;76.39
43480;BME280;29067;35.492;-97.520;2023-05-12T03:29:32;96536.43;;;19.47;78.21
43480;BME280;29067;35.492;-97.520;2023-05-12T03:32:00;96545.41;;;19.47;78.08
43480;BME280;29067;35.492;-97.520;2023-05-12T03:34:29;96549.75;;;20.28;75.10
43480;BME280;29067;35.492;-97.520;2023-05-12T03:36:57;96556.33;;;19.53;74.22
43480;BME280;29067;35.492;-97.520;2023-05-12T03:39:25;96544.50;;;19.77;72.79
43480;BME280;29067;35.492;-97.520;2023-05-12T03:41:53;96551.23;;;20.20;70.44
43480;BME280;29067;35.492;-97.520;2023-05-12T03:44:22;96558.36;;;20.45;69.38
43480;BME280;29067;35.492;-97.520;2023-05-12T03:46:50;96558.62;;;20.31;69.52
43480;BME280;29067;35.492;-97.520;2023-05-12T03:49:18;96560.84;;;20.35;69.98
43480;BME280;29067;35.492;-97.520;2023-05-12T03:51:46;96565.36;;;20.76;65.71
43480;BME280;29067;35.492;-97.520;2023-05-12T03:54:14;96563.65;;;20.04;66.23
43480;BME280;29067;35.492;-97.520;2023-05-12T03:56:43;96555.27;;;20.33;66.17
43480;BME280;29067;35.492;-97.520;2023-05-12T03:59:11;96551.29;;;19.28;66.56
43480;BME280;29067;35.492;-97.520;2023-05-12T04:01:39;96544.59;;;20.10;67.54
43480;BME280;29067;35.492;-97.520;2023-05-12T04:04:08;96536.07;;;20.99;64.48
43480;BME280;29067;35.492;-97.520;2023-05-12T04:06:35;96536.05;;;20.75;65.09
43480;BME280;29067;35.492;-97.520;2023-05-12T04:09:04;96535.48;;;19.82;67.18
43480;BME280;29067;35.492;-97.520;2023-05-12T04:11:32;96522.19;;;21.29;64.92
43480;BME280;29067;35.492;-97.520;2023-05-12T04:14:00;96517.01;;;20.15;66.75
43480;BME280;29067;35.492;-97.520;2023-05-12T04:16:29;96510.13;;;20.78;63.93
43480;BME280;29067;35.492;-97.520;2023-05-12T04:18:57;96503.92;;;20.86;65.54
43480;BME280;29067;35.492;-97.520;2023-05-12T04:21:25;96500.14;;;20.41;66.47
43480;BME280;29067;35.492;-97.520;2023-05-12T04:23:54;96494.66;;;20.68;64.51
43480;BME280;29067;35.492;-97.520;2023-05-12T04:26:22;96482.74;;;20.44;66.87
43480;BME280;29067;35.492;-97.520;2023-05-12T04:28:50;96474.17;;;20.92;66.70
43480;BME280;29067;35.492;-97.520;2023-05-12T04:31:18;96463.66;;;20.87;65.62
43480;BME280;29067;35.492;-97.520;2023-05-12T04:33:47;96449.16;;;19.98;65.18
43480;BME280;29067;35.492;-97.520;2023-05-12T04:36:14;96441.99;;;19.79;64.30
43480;BME280;29067;35.492;-97.520;2023-05-12T04:38:43;96431.42;;;20.50;60.48
43480;BME280;29067;35.492;-97.520;2023-05-12T04:41:12;96419.47;;;21.25;59.94
43480;BME280;29067;35.492;-97.520;2023-05-12T04:43:40;96418.15;;;20.68;60.58
43480;BME280;29067;35.492;-97.520;2023-05-12T04:46:08;96427.89;;;19.54;62.34
43480;BME280;29067;35.492;-97.520;2023-05-12T04:48:36;96436.50;;;19.84;62.83
43480;BME280;29067;35.492;-97.520;2023-05-12T04:51:04;96441.98;;;20.07;64.06
43480;BME280;29067;35.492;-97.520;2023-05-12T04:53:32;96441.53;;;20.11;62.49
43480;BME280;29067;35.492;-97.520;2023-05-12T04:55:59;96444.46;;;20.45;61.70
43480;BME280;29067;35.492;-97.520;2023-05-12T04:58:28;96446.45;;;19.38;64.78
43480;BME280;29067;35.492;-97.520;2023-05-12T05:00:56;96452.79;;;19.33;64.00
43480;BME280;29067;35.492;-97.520;2023-05-12T05:03:24;96462.52;;;19.47;65.68
43480;BME280;29067;35.492;-97.520;2023-05-12T05:05:52;96466.36;;;19.65;65.09
43480;BME280;29067;35.492;-97.520;2023-05-12T05:08:21;96472.07;;;19.08;67.71
43480;BME280;29067;35.492;-97.520;2023-05-12T05:10:49;96473.05;;;18.95;68.35
43480;BME280;29067;35.492;-97.520;2023-05-12T05:13:17;96468.08;;;19.80;66.57
43480;BME280;29067;35.492;-97.520;2023-05-12T05:15:54;96467.13;;;19.28;67.69
43480;BME280;29067;35.492;-97.520;2023-05-12T05:18:22;96468.06;;;21.33;63.95
43480;BME280;29067;35.492;-97.520;2023-05-12T05:20:51;96474.90;;;20.76;65.98
43480;BME280;29067;35.492;-97.520;2023-05-12T05:23:19;96481.03;;;19.41;67.77
43480;BME280;29067;35.492;-97.520;2023-05-12T05:25:46;96489.62;;;19.31;70.03
43480;BME280;29067;35.492;-97.520;2023-05-12T05:28:16;96486.54;;;19.91;68.04
43480;BME280;29067;35.492;-97.520;2023-05-12T05:30:44;96495.30;;;18.91;72.15
43480;BME280;29067;35.492;-97.520;2023-05-12T05:33:18;96502.75;;;19.15;72.61
43480;BME280;29067;35.492;-97.520;2023-05-12T05:35:46;96498.95;;;19.48;71.85
43480;BME280;29067;35.492;-97.520;2023-05-12T05:38:15;96499.61;;;18.55;75.17
43480;BME280;29067;35.492;-97.520;2023-05-12T05:40:43;96492.76;;;19.11;73.80
43480;BME280;29067;35.492;-97.520;2023-05-12T05:43:11;96491.71;;;19.25;73.55
43480;BME280;29067;35.492;-97.520;2023-05-12T05:45:39;96489.29;;;19.44;73.44
43480;BME280;29067;35.492;-97.520;2023-05-12T05:48:06;96496.76;;;19.47;75.96
43480;BME280;29067;35.492;-97.520;2023-05-12T05:50:34;96500.75;;;19.89;73.42
43480;BME280;29067;35.492;-97.520;2023-05-12T05:53:03;96494.95;;;20.43;74.07
43480;BME280;29067;35.492;-97.520;2023-05-12T05:55:30;96491.68;;;20.20;75.01
43480;BME280;29067;35.492;-97.520;2023-05-12T05:57:58;96483.57;;;19.14;81.03
43480;BME280;29067;35.492;-97.520;2023-05-12T06:00:26;96479.81;;;18.94;80.05
43480;BME280;29067;35.492;-97.520;2023-05-12T06:02:54;96468.62;;;19.75;80.06
43480;BME280;29067;35.492;-97.520;2023-05-12T06:05:22;96468.21;;;19.23;85.79
43480;BME280;29067;35.492;-97.520;2023-05-12T06:07:50;96484.58;;;18.99;84.40
43480;BME280;29067;35.492;-97.520;2023-05-12T06:10:18;96488.42;;;20.55;81.23
43480;BME280;29067;35.492;-97.520;2023-05-12T06:12:47;96490.31;;;19.50;85.59
43480;BME280;29067;35.492;-97.520;2023-05-12T06:15:15;96496.46;;;19.80;83.67
43480;BME280;29067;35.492;-97.520;2023-05-12T06:17:43;96503.71;;;19.83;86.03
43480;BME280;29067;35.492;-97.520;2023-05-12T06:20:11;96498.85;;;19.57;87.94
43480;BME280;29067;35.492;-97.520;2023-05-12T06:22:39;96487.24;;;19.70;90.70
43480;BME280;29067;35.492;-97.520;2023-05-12T06:25:07;96478.20;;;19.83;91.95
43480;BME280;29067;35.492;-97.520;2023-05-12T06:27:35;96475.32;;;19.53;92.37
43480;BME280;29067;35.492;-97.520;2023-05-12T06:30:05;96473.42;;;19.38;95.12
43480;BME280;29067;35.492;-97.520;2023-05-12T06:32:33;96473.26;;;20.05;93.64
43480;BME280;29067;35.492;-97.520;2023-05-12T06:35:01;96477.00;;;19.88;95.13
43480;BME280;29067;35.492;-97.520;2023-05-12T06:37:30;96488.56;;;19.39;96.50
43480;BME280;29067;35.492;-97.520;2023-05-12T06:39:58;96491.96;;;19.23;98.05
43480;BME280;29067;35.492;-97.520;2023-05-12T06:42:26;96481.44;;;18.83;100.00
43480;BME280;29067;35.492;-97.520;2023-05-12T06:44:54;96473.73;;;20.47;98.10
43480;BME280;29067;35.492;-97.520;2023-05-12T06:47:22;96466.14;;;20.20;94.88
43480;BME280;29067;35.492;-97.520;2023-05-12T06:49:49;96455.01;;;20.05;98.84
43480;BME280;29067;35.492;-97.520;2023-05-12T06:52:17;96453.11;;;19.06;100.00
43480;BME280;29067;35.492;-97.520;2023-05-12T06:54:46;96454.14;;;18.52;100.00
43480;BME280;29067;35.492;-97.520;2023-05-12T06:57:14;96459.93;;;19.42;100.00
43480;BME280;29067;35.492;-97.520;2023-05-12T06:59:42;96466.73;;;19.70;100.00
43480;BME280;29067;35.492;-97.520;2023-05-12T07:02:10;96473.80;;;19.20;100.00
43480;BME280;29067;35.492;-97.520;2023-05-12T07:04:38;96480.11;;;20.21;100.00
43480;BME280;29067;35.492;-97.520;2023-05-12T07:07:06;96482.44;;;18.48;100.00
43480;BME280;29067;35.492;-97.520;2023-05-12T07:09:34;96479.04;;;18.40;100.00
43480;BME280;29067;35.492;-97.520;2023-05-12T07:12:03;96470.80;;;18.61;100.00
43480;BME280;29067;35.492;-97.520;2023-05-12T07:14:31;96466.21;;;18.86;100.00
43480;BME280;29067;35.492;-97.520;2023-05-12T07:16:59;96466.91;;;18.64;100.00
43480;BME280;29067;35.492;-97.520;2023-05-12T07:19:28;96462.60;;;17.72;100.00
43480;BME280;29067;35.492;-97.520;2023-05-12T07:21:56;96457.18;;;18.58;100.00
43480;BME280;29067;35.492;-97.520;2023-05-12T07:24:24;96458.88;;;18.59;100.00
43480;BME280;29067;35.492;-97.520;2023-05-12T07:26:52;96454.96;;;20.13;100.00
43480;BME280;29067;35.492;-97.520;2023-05-12T07:29:19;96453.43;;;19.06;100.00
43480;BME280;29067;35.492;-97.520;2023-05-12T07:31:47;96450.92;;;19.61;100.00
43480;BME280;29067;35.492;-97.520;2023-05-12T07:34:16;96450.91;;;19.13;100.00
43480;BME280;29067;35.492;-97.520;2023-05-12T07:36:44;96456.43;;;19.81;100.00
43480;BME280;29067;35.492;-97.520;2023-05-12T07:39:11;96454.18;;;19.04;100.00
43480;BME280;29067;35.492;-97.520;2023-05-12T07:41:39;96449.85;;;19.63;100.00
43480;BME280;29067;35.492;-97.520;2023-05-12T07:44:07;96451.61;;;17.59;100.00
43480;BME280;29067;35.492;-97.520;2023-05-12T07:46:36;96451.80;;;19.12;100.00
43480;BME280;29067;35.492;-97.520;2023-05-12T07:49:03;96450.66;;;18.89;100.00
43480;BME280;29067;35.492;-97.520;2023-05-12T07:51:31;96449.35;;;19.97;100.00
43480;BME280;29067;35.492;-97.520;2023-05-12T07:54:00;96446.84;;;19.40;100.00
43480;BME280;29067;35.492;-97.520;2023-05-12T07:56:28;96453.64;;;20.15;100.00
43480;BME280;29067;35.492;-97.520;2023-05-12T07:59:01;96455.86;;;19.19;100.00
43480;BME280;29067;35.492;-97.520;2023-05-12T08:01:29;96457.56;;;18.80;100.00
43480;BME280;29067;35.492;-97.520;2023-05-12T08:03:56;96455.48;;;18.01;100.00
43480;BME280;29067;35.492;-97.520;2023-05-12T08:06:24;96450.37;;;17.78;100.00
43480;BME280;29067;35.492;-97.520;2023-05-12T08:08:52;96458.79;;;19.04;100.00
43480;BME280;29067;35.492;-97.520;2023-05-12T08:11:20;96459.14;;;18.33;100.00
43480;BME280;29067;35.492;-97.520;2023-05-12T08:13:48;96463.25;;;18.11;100.00
43480;BME280;29067;35.492;-97.520;2023-05-12T08:16:17;96464.52;;;18.36;100.00
43480;BME280;29067;35.492;-97.520;2023-05-12T08:18:45;96459.14;;;18.26;100.00
43480;BME280;29067;35.492;-97.520;2023-05-12T08:21:13;96468.87;;;17.97;100.00
43480;BME280;29067;35.492;-97.520;2023-05-12T08:23:41;96465.72;;;17.86;100.00
43480;BME280;29067;35.492;-97.520;2023-05-12T08:26:09;96472.10;;;18.51;100.00
43480;BME280;29067;35.492;-97.520;2023-05-12T08:28:37;96476.01;;;18.18;100.00
43480;BME280;29067;35.492;-97.520;2023-05-12T08:31:05;96463.70;;;18.17;100.00
43480;BME280;29067;35.492;-97.520;2023-05-12T08:33:34;96461.14;;;18.96;100.00
43480;BME280;29067;35.492;-97.520;2023-05-12T08:36:02;96460.96;;;19.11;100.00
43480;BME280;29067;35.492;-97.520;2023-05-12T08:38:31;96464.37;;;18.35;100.00
43480;BME280;29067;35.492;-97.520;2023-05-12T08:41:11;96464.88;;;17.87;100.00
43480;BME280;29067;35.492;-97.520;2023-05-12T08:43:44;96470.90;;;18.31;100.00
43480;BME280;29067;35.492;-97.520;2023-05-12T08:46:12;96467.05;;;19.12;100.00
43480;BME280;29067;35.492;-97.520;2023-05-12T08:48:41;96471.56;;;18.74;100.00
43480;BME280;29067;35.492;-97.520;2023-05-12T08:51:13;96472.29;;;19.18;100.00
43480;BME280;29067;35.492;-97.520;2023-05-12T08:53:41;96465.72;;;19.10;100.00
43480;BME280;29067;35.492;-97.520;2023-05-12T08:56:10;96469.77;;;18.86;100.00
43480;BME280;29067;35.492;-97.520;2023-05-12T08:58:38;96477.75;;;19.65;100.00
43480;BME280;29067;35.492;-97.520;2023-05-12T09:01:06;96485.24;;;19.41;100.00
43480;BME280;29067;35.492;-97.520;2023-05-12T09:03:34;96486.24;;;18.84;100.00
43480;BME280;29067;35.492;-97.520;2023-05-12T09:06:05;96486.25;;;19.29;100.00
43480;BME280;29067;35.492;-97.520;2023-05-12T09:08:33;96491.31;;;19.41;100.00
43480;BME280;29067;35.492;-97.520;2023-05-12T09:11:03;96497.12;;;20.14;100.00
43480;BME280;29067;35.492;-97.520;2023-05-12T09:13:37;96499.61;;;20.76;100.00
43480;BME280;29067;35.492;-97.520;2023-05-12T09:16:09;96504.95;;;19.32;100.00
43480;BME280;29067;35.492;-97.520;2023-05-12T09:18:48;96508.59;;;20.29;100.00
43480;BME280;29067;35.492;-97.520;2023-05-12T09:21:16;96519.07;;;19.97;100.00
43480;BME280;29067;35.492;-97.520;2023-05-12T09:23:55;96522.09;;;20.05;99.44
43480;BME280;29067;35.492;-97.520;2023-05-12T09:26:24;96527.03;;;20.74;95.26
43480;BME280;29067;35.492;-97.520;2023-05-12T09:28:53;96527.27;;;19.51;100.00
43480;BME280;29067;35.492;-97.520;2023-05-12T09:31:23;96534.50;;;19.17;100.00
43480;BME280;29067;35.492;-97.520;2023-05-12T09:33:51;96532.50;;;20.29;100.00
43480;BME280;29067;35.492;-97.520;2023-05-12T09:36:20;96534.55;;;20.65;98.70
43480;BME280;29067;35.492;-97.520;2023-05-12T09:38:58;96534.17;;;21.05;96.59
43480;BME280;29067;35.492;-97.520;2023-05-12T09:41:26;96534.90;;;19.75;100.00
43480;BME280;29067;35.492;-97.520;2023-05-12T09:43:55;96539.17;;;19.20;100.00
43480;BME280;29067;35.492;-97.520;2023-05-12T09:46:24;96539.43;;;20.00;100.00
43480;BME280;29067;35.492;-97.520;2023-05-12T09:48:55;96537.31;;;20.11;100.00
43480;BME280;29067;35.492;-97.520;2023-05-12T09:51:24;96536.24;;;20.29;100.00
43480;BME280;29067;35.492;-97.520;2023-05-12T09:53:52;96538.41;;;19.17;100.00
43480;BME280;29067;35.492;-97.520;2023-05-12T09:56:20;96532.35;;;20.15;100.00
43480;BME280;29067;35.492;-97.520;2023-05-12T09:58:49;96527.54;;;19.72;100.00
43480;BME280;29067;35.492;-97.520;2023-05-12T10:01:18;96524.08;;;19.24;100.00
43480;BME280;29067;35.492;-97.520;2023-05-12T10:03:49;96522.17;;;20.11;100.00
43480;BME280;29067;35.492;-97.520;2023-05-12T10:06:21;96525.84;;;18.88;100.00
43480;BME280;29067;35.492;-97.520;2023-05-12T10:09:01;96526.47;;;18.79;100.00
43480;BME280;29067;35.492;-97.520;2023-05-12T10:11:31;96531.20;;;18.28;100.00
43480;BME280;29067;35.492;-97.520;2023-05-12T10:13:59;96526.27;;;18.76;100.00
43480;BME280;29067;35.492;-97.520;2023-05-12T10:16:28;96529.42;;;18.98;100.00
43480;BME280;29067;35.492;-97.520;2023-05-12T10:18:57;96521.42;;;19.67;100.00
43480;BME280;29067;35.492;-97.520;2023-05-12T10:21:25;96530.06;;;19.28;100.00
43480;BME280;29067;35.492;-97.520;2023-05-12T10:23:54;96524.84;;;18.93;100.00
43480;BME280;29067;35.492;-97.520;2023-05-12T10:26:22;96524.87;;;19.20;100.00
43480;BME280;29067;35.492;-97.520;2023-05-12T10:28:51;96525.29;;;19.36;100.00
43480;BME280;29067;35.492;-97.520;2023-05-12T10:31:20;96533.11;;;19.46;100.00
43480;BME280;29067;35.492;-97.520;2023-05-12T10:33:56;96532.87;;;19.52;100.00
43480;BME280;29067;35.492;-97.520;2023-05-12T10:36:25;96531.04;;;21.02;100.00
43480;BME280;29067;35.492;-97.520;2023-05-12T10:38:53;96537.45;;;19.81;100.00
43480;BME280;29067;35.492;-97.520;2023-05-12T10:41:30;96541.69;;;18.83;100.00
43480;BME280;29067;35.492;-97.520;2023-05-12T10:43:58;96542.89;;;18.56;100.00
43480;BME280;29067;35.492;-97.520;2023-05-12T10:46:26;96537.09;;;20.67;100.00
43480;BME280;29067;35.492;-97.520;2023-05-12T10:48:57;96542.64;;;19.76;100.00
43480;BME280;29067;35.492;-97.520;2023-05-12T10:51:27;96542.42;;;20.40;100.00
43480;BME280;29067;35.492;-97.520;2023-05-12T10:53:57;96543.16;;;20.59;100.00
43480;BME280;29067;35.492;-97.520;2023-05-12T10:56:28;96547.28;;;20.82;100.00
43480;BME280;29067;35.492;-97.520;2023-05-12T10:59:13;96545.37;;;20.34;100.00
43480;BME280;29067;35.492;-97.520;2023-05-12T11:03:02;96548.61;;;20.36;100.00
43480;BME280;29067;35.492;-97.520;2023-05-12T11:05:38;96559.37;;;19.96;100.00
43480;BME280;29067;35.492;-97.520;2023-05-12T11:08:06;96557.91;;;20.52;100.00
43480;BME280;29067;35.492;-97.520;2023-05-12T11:10:35;96570.71;;;19.99;100.00
43480;BME280;29067;35.492;-97.520;2023-05-12T11:13:03;96582.29;;;18.93;100.00
43480;BME280;29067;35.492;-97.520;2023-05-12T11:15:31;96591.16;;;19.62;100.00
43480;BME280;29067;35.492;-97.520;2023-05-12T11:18:02;96591.01;;;19.64;100.00
43480;BME280;29067;35.492;-97.520;2023-05-12T11:20:30;96590.14;;;19.43;100.00
43480;BME280;29067;35.492;-97.520;2023-05-12T11:22:58;96596.31;;;19.06;100.00
43480;BME280;29067;35.492;-97.520;2023-05-12T11:25:26;96600.78;;;19.06;100.00
43480;BME280;29067;35.492;-97.520;2023-05-12T11:27:54;96610.36;;;19.50;100.00
43480;BME280;29067;35.492;-97.520;2023-05-12T11:30:22;96614.25;;;20.02;100.00
43480;BME280;29067;35.492;-97.520;2023-05-12T11:33:00;96624.46;;;20.07;100.00
43480;BME280;29067;35.492;-97.520;2023-05-12T11:35:30;96636.73;;;20.45;100.00
43480;BME280;29067;35.492;-97.520;2023-05-12T11:37:58;96646.36;;;21.49;99.86
43480;BME280;29067;35.492;-97.520;2023-05-12T11:40:26;96650.43;;;20.87;100.00
43480;BME280;29067;35.492;-97.520;2023-05-12T11:42:53;96650.22;;;20.54;100.00
43480;BME280;29067;35.492;-97.520;2023-05-12T11:45:24;96659.73;;;20.98;96.96
43480;BME280;29067;35.492;-97.520;2023-05-12T11:48:04;96669.26;;;20.39;100.00
43480;BME280;29067;35.492;-97.520;2023-05-12T11:50:32;96672.99;;;20.85;99.53
43480;BME280;29067;35.492;-97.520;2023-05-12T11:53:00;96681.45;;;21.78;92.45
43480;BME280;29067;35.492;-97.520;2023-05-12T11:55:27;96678.78;;;22.02;90.73
43480;BME280;29067;35.492;-97.520;2023-05-12T11:57:57;96687.73;;;21.54;91.85
43480;BME280;29067;35.492;-97.520;2023-05-12T12:00:28;96695.59;;;21.81;92.19
43480;BME280;29067;35.492;-97.520;2023-05-12T12:03:13;96701.31;;;19.42;100.00
43480;BME280;29067;35.492;-97.520;2023-05-12T12:05:57;96701.60;;;19.94;100.00
43480;BME280;29067;35.492;-97.520;2023-05-12T12:08:26;96715.25;;;20.08;100.00
43480;BME280;29067;35.492;-97.520;2023-05-12T12:10:54;96712.51;;;20.84;100.00
43480;BME280;29067;35.492;-97.520;2023-05-12T12:13:23;96714.39;;;19.94;100.00
43480;BME280;29067;35.492;-97.520;2023-05-12T12:15:52;96717.13;;;20.82;98.22
43480;BME280;29067;35.492;-97.520;2023-05-12T12:18:20;96724.23;;;20.22;100.00
43480;BME280;29067;35.492;-97.520;2023-05-12T12:20:49;96727.64;;;19.90;100.00
43480;BME280;29067;35.492;-97.520;2023-05-12T12:23:17;96730.54;;;19.55;100.00
43480;BME280;29067;35.492;-97.520;2023-05-12T12:25:45;96726.72;;;19.96;100.00
43480;BME280;29067;35.492;-97.520;2023-05-12T12:28:14;96725.93;;;19.93;100.00
43480;BME280;29067;35.492;-97.520;2023-05-12T12:30:42;96726.85;;;19.78;100.00
43480;BME280;29067;35.492;-97.520;2023-05-12T12:33:10;96736.73;;;20.26;100.00
43480;BME280;29067;35.492;-97.520;2023-05-12T12:35:38;96737.39;;;20.59;99.32
43480;BME280;29067;35.492;-97.520;2023-05-12T12:38:06;96747.49;;;19.33;100.00
43480;BME280;29067;35.492;-97.520;2023-05-12T12:40:34;96746.24;;;20.72;100.00
43480;BME280;29067;35.492;-97.520;2023-05-12T12:43:02;96753.22;;;21.42;95.15
43480;BME280;29067;35.492;-97.520;2023-05-12T12:45:30;96763.00;;;20.30;98.14
43480;BME280;29067;35.492;-97.520;2023-05-12T12:47:59;96766.04;;;21.60;91.88